createdAt,value
2023-05-05T00:10:39.785Z,3.88
2023-05-05T01:52:50.952Z,3.65
2023-05-05T01:55:26.025Z,3.95
2023-05-05T01:58:03.007Z,4.13
2023-05-05T02:00:35.761Z,4.38
2023-05-05T02:03:11.413Z,4.07
2023-05-05T02:05:44.983Z,4.03
2023-05-05T02:08:18.781Z,3.40
2023-05-05T02:10:52.280Z,4.47
2023-05-05T02:13:26.657Z,3.75
2023-05-05T02:16:01.770Z,3.72
2023-05-05T02:18:36.104Z,3.80
2023-05-05T02:21:14.917Z,3.70
2023-05-05T02:23:52.094Z,3.80
2023-05-05T02:26:30.476Z,3.72
2023-05-05T02:29:03.577Z,4.82
2023-05-05T02:31:43.283Z,4.90
2023-05-05T02:34:22.846Z,3.85
2023-05-05T02:36:58.838Z,3.83
2023-05-05T02:39:44.920Z,4.13
2023-05-05T02:42:20.835Z,4.35
2023-05-05T02:44:57.351Z,4.18
2023-05-05T02:47:36.740Z,3.95
2023-05-05T02:50:10.198Z,4.32
2023-05-05T02:52:43.021Z,5.25
2023-05-05T02:55:15.857Z,4.78
2023-05-05T02:58:04.910Z,4.03
2023-05-05T03:00:49.080Z,4.45
2023-05-05T03:03:46.966Z,4.43
2023-05-05T03:06:22.156Z,4.28
2023-05-05T03:09:13.908Z,4.60
2023-05-05T03:12:04.869Z,4.63
2023-05-05T03:14:43.774Z,4.90
2023-05-05T03:17:18.708Z,5.85
2023-05-05T03:19:52.278Z,4.43
2023-05-05T03:22:27.939Z,4.95
2023-05-05T03:25:00.144Z,4.60
2023-05-05T03:27:32.762Z,4.78
2023-05-05T03:30:05.843Z,4.68
2023-05-05T03:32:41.165Z,4.43
2023-05-05T03:35:14.486Z,4.32
2023-05-05T03:37:46.692Z,4.75
2023-05-05T03:40:18.952Z,4.60
2023-05-05T03:42:51.260Z,4.22
2023-05-05T03:45:23.482Z,4.45
2023-05-05T03:47:55.860Z,4.65
2023-05-05T03:50:28.205Z,4.50
2023-05-05T03:53:00.431Z,5.10
2023-05-05T03:55:35.760Z,5.00
2023-05-05T03:58:10.739Z,4.85
2023-05-05T04:00:43.033Z,5.20
2023-05-05T04:03:15.497Z,4.78
2023-05-05T04:05:48.059Z,4.65
2023-05-05T04:08:20.349Z,4.80
2023-05-05T04:10:57.733Z,4.93
2023-05-05T04:13:40.389Z,5.50
2023-05-05T04:16:13.128Z,4.43
2023-05-05T04:18:45.500Z,5.22
2023-05-05T04:21:17.824Z,3.88
2023-05-05T04:23:53.088Z,5.53
2023-05-05T04:26:25.680Z,5.85
2023-05-05T04:28:58.075Z,4.95
2023-05-05T04:31:30.907Z,5.07
2023-05-05T04:34:03.256Z,4.55
2023-05-05T04:36:35.517Z,4.90
2023-05-05T04:39:08.986Z,4.45
2023-05-05T04:41:41.350Z,5.25
2023-05-05T04:44:13.600Z,4.53
2023-05-05T04:46:46.094Z,5.15
2023-05-05T04:49:18.383Z,5.13
2023-05-05T04:51:53.453Z,6.68
2023-05-05T04:54:25.845Z,4.57
2023-05-05T04:56:59.513Z,5.95
2023-05-05T04:59:31.835Z,5.15
2023-05-05T05:02:07.253Z,5.10
2023-05-05T05:04:39.690Z,5.10
2023-05-05T05:07:17.119Z,4.18
2023-05-05T05:09:49.421Z,5.30
2023-05-05T05:12:24.232Z,5.40
2023-05-05T05:14:56.433Z,4.68
2023-05-05T05:17:30.404Z,4.95
2023-05-05T05:20:05.196Z,4.45
2023-05-05T05:22:39.098Z,4.65
2023-05-05T05:25:11.575Z,5.60
2023-05-05T05:27:44.137Z,4.47
2023-05-05T05:30:17.264Z,4.97
2023-05-05T05:32:52.444Z,4.57
2023-05-05T05:35:24.627Z,4.72
2023-05-05T05:37:57.419Z,4.15
2023-05-05T05:40:39.126Z,5.28
2023-05-05T05:43:11.758Z,4.88
2023-05-05T05:45:44.303Z,4.10
2023-05-05T05:48:25.342Z,4.78
2023-05-05T05:50:57.540Z,4.95
2023-05-05T05:53:32.634Z,4.55
2023-05-05T05:56:05.278Z,4.90
2023-05-05T05:58:40.882Z,5.13
2023-05-05T06:01:13.249Z,5.40
2023-05-05T06:03:45.887Z,4.35
2023-05-05T06:06:18.331Z,4.28
2023-05-05T06:08:50.592Z,4.00
2023-05-05T06:11:23.140Z,4.53
2023-05-05T06:13:55.654Z,4.38
2023-05-05T06:16:28.066Z,4.78
2023-05-05T06:19:00.420Z,4.68
2023-05-05T06:21:32.612Z,4.88
2023-05-05T06:24:08.078Z,7.22
2023-05-05T06:26:43.143Z,4.50
2023-05-05T06:29:15.586Z,4.15
2023-05-05T06:31:47.864Z,5.47
2023-05-05T06:34:23.222Z,4.60
2023-05-05T06:36:55.706Z,4.28
2023-05-05T06:39:28.055Z,4.40
2023-05-05T06:42:04.408Z,4.50
2023-05-05T06:44:38.323Z,4.55
2023-05-05T06:47:43.231Z,5.75
2023-05-05T06:50:15.782Z,4.50
2023-05-05T06:52:48.096Z,4.97
2023-05-05T06:55:20.618Z,4.60
2023-05-05T06:57:53.111Z,5.50
2023-05-05T07:00:25.898Z,4.72
2023-05-05T07:02:58.460Z,4.65
2023-05-05T07:05:33.817Z,5.30
2023-05-05T07:08:09.637Z,5.00
2023-05-05T07:10:42.504Z,4.13
2023-05-05T07:13:17.784Z,5.55
2023-05-05T07:15:50.341Z,5.05
2023-05-05T07:18:22.592Z,4.10
2023-05-05T07:20:58.138Z,4.30
2023-05-05T07:23:30.546Z,5.13
2023-05-05T07:26:02.856Z,5.88
2023-05-05T07:28:35.797Z,5.13
2023-05-05T07:31:08.159Z,4.93
2023-05-05T07:33:44.418Z,4.97
2023-05-05T07:36:20.427Z,4.55
2023-05-05T07:38:52.626Z,4.50
2023-05-05T07:41:25.157Z,5.57
2023-05-05T07:44:01.460Z,5.00
2023-05-05T07:46:36.730Z,5.70
2023-05-05T07:49:09.125Z,5.25
2023-05-05T07:51:41.306Z,6.10
2023-05-05T07:54:13.508Z,5.65
2023-05-05T07:56:45.899Z,5.82
2023-05-05T07:59:18.249Z,7.25
2023-05-05T08:01:59.530Z,6.35
2023-05-05T08:04:31.692Z,6.55
2023-05-05T08:07:03.895Z,6.57
2023-05-05T08:09:37.542Z,6.75
2023-05-05T08:12:10.213Z,7.40
2023-05-05T08:14:42.737Z,6.95
2023-05-05T08:17:15.024Z,6.28
2023-05-05T08:19:47.165Z,6.57
2023-05-05T08:22:23.034Z,6.03
2023-05-05T08:25:02.428Z,7.03
2023-05-05T08:27:35.657Z,6.40
2023-05-05T08:30:09.365Z,5.68
2023-05-05T08:32:44.453Z,5.45
2023-05-05T08:35:16.870Z,5.45
2023-05-05T08:37:49.142Z,5.57
2023-05-05T08:40:30.118Z,5.82
2023-05-05T08:43:02.373Z,5.07
2023-05-05T08:45:34.549Z,5.30
2023-05-05T08:48:07.288Z,5.60
2023-05-05T08:50:40.915Z,4.70
2023-05-05T08:53:36.099Z,5.35
2023-05-05T08:56:08.967Z,5.10
2023-05-05T08:58:44.265Z,5.15
2023-05-05T09:01:18.204Z,4.65
2023-05-05T09:03:52.720Z,5.30
2023-05-05T09:06:27.556Z,5.75
2023-05-05T09:09:01.197Z,5.60
2023-05-05T09:11:36.033Z,5.85
2023-05-05T09:14:08.296Z,6.53
2023-05-05T09:16:44.446Z,6.85
2023-05-05T09:19:16.728Z,6.55
2023-05-05T09:21:49.795Z,6.65
2023-05-05T09:24:21.995Z,7.18
2023-05-05T09:26:57.388Z,7.32
2023-05-05T09:29:31.559Z,8.32
2023-05-05T09:32:10.795Z,6.40
2023-05-05T09:34:43.010Z,7.75
2023-05-05T09:37:31.263Z,6.70
2023-05-05T09:40:03.586Z,7.78
2023-05-05T09:42:40.082Z,6.82
2023-05-05T09:45:18.551Z,7.05
2023-05-05T09:47:52.017Z,7.28
2023-05-05T09:50:30.961Z,7.00
2023-05-05T09:53:09.415Z,6.75
2023-05-05T09:55:58.142Z,6.82
2023-05-05T09:58:31.702Z,7.63
2023-05-05T10:01:04.079Z,6.60
2023-05-05T10:03:52.426Z,7.07
2023-05-05T10:06:44.225Z,6.53
2023-05-05T10:09:16.621Z,5.93
2023-05-05T10:11:49.051Z,6.68
2023-05-05T10:14:22.361Z,5.22
2023-05-05T10:16:58.625Z,6.32
2023-05-05T10:19:36.332Z,5.20
2023-05-05T10:22:14.760Z,5.28
2023-05-05T10:25:16.256Z,4.97
2023-05-05T10:27:54.342Z,4.90
2023-05-05T10:30:45.131Z,4.50
2023-05-05T10:36:06.839Z,4.65
2023-05-05T10:38:42.807Z,4.70
2023-05-05T10:41:16.335Z,4.82
2023-05-05T10:43:52.796Z,4.85
2023-05-05T10:46:46.449Z,5.07
2023-05-05T10:49:50.489Z,4.43
2023-05-05T10:52:40.911Z,4.43
2023-05-05T10:55:32.230Z,3.85
2023-05-05T10:58:04.921Z,3.53
2023-05-05T11:00:54.887Z,3.95
2023-05-05T11:31:19.241Z,2.97
2023-05-05T11:42:27.390Z,4.22
2023-05-05T11:45:04.132Z,4.07
2023-05-05T12:00:12.037Z,4.57
2023-05-05T12:03:02.587Z,3.30
2023-05-05T12:09:21.680Z,3.92
2023-05-05T12:12:02.171Z,4.65
2023-05-05T12:20:04.891Z,4.30
2023-05-05T12:22:54.536Z,5.78
2023-05-05T12:25:35.848Z,5.25
2023-05-05T12:31:49.043Z,5.40
2023-05-05T12:34:51.291Z,3.38
2023-05-05T12:52:58.286Z,4.55
2023-05-05T13:04:59.350Z,5.88
2023-05-05T13:19:25.329Z,4.70
2023-05-05T13:23:01.091Z,5.22
2023-05-05T13:29:33.027Z,6.07
2023-05-05T13:32:06.577Z,5.00
2023-05-05T13:35:16.585Z,5.88
2023-05-05T13:38:22.154Z,5.97
2023-05-05T13:40:54.978Z,6.47
2023-05-05T13:43:27.100Z,6.00
2023-05-05T13:46:12.259Z,6.75
2023-05-05T13:49:01.777Z,5.68
2023-05-05T13:52:08.914Z,6.45
2023-05-05T13:54:42.396Z,7.18
2023-05-05T13:57:15.330Z,6.78
2023-05-05T13:59:47.442Z,6.30
2023-05-05T14:02:19.761Z,7.05
2023-05-05T14:04:51.895Z,6.40
2023-05-05T14:07:24.167Z,6.18
2023-05-05T14:09:56.606Z,6.57
2023-05-05T14:12:28.803Z,6.43
2023-05-05T14:15:01.222Z,6.63
2023-05-05T14:17:33.502Z,6.80
2023-05-05T14:20:07.331Z,7.55
2023-05-05T14:22:39.521Z,7.15
2023-05-05T14:25:14.812Z,6.07
2023-05-05T14:27:47.278Z,5.70
2023-05-05T14:30:19.435Z,6.82
2023-05-05T14:32:51.787Z,7.88
2023-05-05T14:35:24.000Z,6.95
2023-05-05T14:37:57.002Z,6.63
2023-05-05T14:40:30.478Z,6.40
2023-05-05T14:43:05.550Z,6.10
2023-05-05T14:45:40.518Z,6.70
2023-05-05T14:48:12.878Z,7.18
2023-05-05T14:50:48.789Z,6.70
2023-05-05T14:53:21.007Z,7.63
2023-05-05T14:55:53.210Z,7.60
2023-05-05T14:58:25.551Z,7.00
2023-05-05T15:00:57.961Z,7.00
2023-05-05T15:03:30.203Z,6.00
2023-05-05T15:06:02.532Z,6.70
2023-05-05T15:08:35.114Z,6.00
2023-05-05T15:11:07.664Z,4.88
2023-05-05T15:13:42.604Z,6.15
2023-05-05T15:16:14.918Z,5.05
2023-05-05T15:18:47.378Z,5.25
2023-05-05T15:21:19.711Z,6.03
2023-05-05T15:23:52.295Z,5.35
2023-05-05T15:26:27.698Z,6.88
2023-05-05T15:29:00.146Z,4.80
2023-05-05T15:31:32.558Z,4.60
2023-05-05T15:34:04.957Z,5.30
2023-05-05T15:36:37.239Z,5.18
2023-05-05T15:39:10.321Z,5.32
2023-05-05T15:41:42.721Z,4.97
2023-05-05T15:44:15.528Z,4.82
2023-05-05T15:46:50.241Z,5.18
2023-05-05T15:49:22.903Z,4.50
2023-05-05T15:51:55.268Z,5.57
2023-05-05T15:54:27.507Z,5.40
2023-05-05T15:57:00.161Z,4.63
2023-05-05T15:59:38.564Z,4.50
2023-05-05T16:02:10.954Z,5.07
2023-05-05T16:04:43.218Z,5.75
2023-05-05T16:07:15.811Z,5.43
2023-05-05T16:09:48.091Z,5.03
2023-05-05T16:12:23.625Z,5.43
2023-05-05T16:14:55.984Z,4.85
2023-05-05T16:17:28.433Z,5.10
2023-05-05T16:20:00.684Z,5.38
2023-05-05T16:22:32.935Z,5.97
2023-05-05T16:25:06.099Z,4.85
2023-05-05T16:27:38.619Z,4.70
2023-05-05T16:30:13.086Z,4.93
2023-05-05T16:32:45.448Z,5.13
2023-05-05T16:35:18.327Z,5.20
2023-05-05T16:37:50.711Z,4.97
2023-05-05T16:40:23.042Z,6.60
2023-05-05T16:42:55.363Z,7.53
2023-05-05T16:45:27.690Z,8.10
2023-05-05T16:48:00.036Z,8.27
2023-05-05T16:50:32.367Z,7.82
2023-05-05T16:53:04.775Z,8.90
2023-05-05T16:55:37.714Z,10.25
2023-05-05T16:58:12.654Z,8.60
2023-05-05T17:00:47.052Z,9.82
2023-05-05T17:03:23.094Z,11.50
2023-05-05T17:05:55.463Z,12.75
2023-05-05T17:08:27.864Z,12.95
2023-05-05T17:11:00.332Z,15.10
2023-05-05T17:13:35.839Z,18.55
2023-05-05T17:16:11.349Z,19.02
2023-05-05T17:18:43.729Z,20.88
2023-05-05T17:21:17.771Z,21.10
2023-05-05T17:23:50.589Z,24.63
2023-05-05T17:26:25.044Z,26.80
2023-05-05T17:28:57.580Z,25.25
2023-05-05T17:31:30.130Z,27.45
2023-05-05T17:34:04.880Z,29.90
2023-05-05T17:36:37.262Z,31.02
2023-05-05T17:39:11.891Z,31.40
2023-05-05T17:41:44.170Z,32.28
2023-05-05T17:44:16.399Z,31.00
2023-05-05T17:46:49.284Z,31.15
2023-05-05T17:49:21.846Z,30.25
2023-05-05T17:51:54.061Z,29.73
2023-05-05T17:54:26.370Z,31.30
2023-05-05T17:56:59.939Z,28.42
2023-05-05T17:59:32.766Z,29.08
2023-05-05T18:02:05.300Z,29.42
2023-05-05T18:04:38.439Z,30.95
2023-05-05T18:07:12.686Z,29.17
2023-05-05T18:09:45.106Z,29.67
2023-05-05T18:12:17.716Z,29.48
2023-05-05T18:14:50.047Z,27.70
2023-05-05T18:17:26.558Z,22.70
2023-05-05T18:20:01.220Z,20.27
2023-05-05T18:22:36.839Z,18.77
2023-05-05T18:25:10.723Z,16.40
2023-05-05T18:27:44.243Z,20.45
2023-05-05T18:30:22.402Z,23.20
2023-05-05T18:33:00.174Z,39.05
2023-05-05T18:35:41.735Z,25.15
2023-05-05T18:38:14.065Z,22.13
2023-05-05T18:40:46.443Z,22.33
2023-05-05T18:43:19.319Z,22.73
2023-05-05T18:45:51.793Z,23.98
2023-05-05T18:48:27.961Z,26.35
2023-05-05T18:51:06.259Z,28.00
2023-05-05T18:53:38.603Z,46.40
2023-05-05T18:56:11.556Z,35.10
2023-05-05T18:58:44.515Z,33.55
2023-05-05T19:01:16.849Z,43.25
2023-05-05T19:03:52.363Z,51.08
2023-05-05T19:06:32.472Z,40.53
2023-05-05T19:09:04.960Z,49.63
2023-05-05T19:11:42.005Z,39.78
2023-05-05T19:14:17.957Z,35.35
2023-05-05T19:16:54.366Z,29.85
2023-05-05T19:19:27.820Z,27.13
2023-05-05T19:22:02.958Z,34.15
2023-05-05T19:24:36.243Z,28.98
2023-05-05T19:27:16.419Z,27.08
2023-05-05T19:29:52.834Z,26.60
2023-05-05T19:32:34.828Z,26.95
2023-05-05T19:35:12.414Z,27.60
2023-05-05T19:37:45.088Z,27.48
2023-05-05T19:40:17.671Z,29.17
2023-05-05T19:42:50.513Z,28.65
2023-05-05T19:45:23.000Z,29.52
2023-05-05T19:47:55.297Z,24.45
2023-05-05T19:50:30.500Z,23.95
2023-05-05T19:53:04.966Z,21.67
2023-05-05T19:55:37.533Z,24.02
2023-05-05T19:58:10.035Z,22.67
2023-05-05T20:00:42.689Z,20.05
2023-05-05T20:03:15.320Z,15.45
2023-05-05T20:05:47.653Z,14.55
2023-05-05T20:08:20.018Z,13.05
2023-05-05T20:10:55.262Z,11.45
2023-05-05T20:13:27.610Z,11.02
2023-05-05T20:16:00.602Z,11.77
2023-05-05T20:18:33.507Z,11.40
2023-05-05T20:21:06.237Z,13.00
2023-05-05T20:23:38.655Z,19.25
2023-05-05T20:26:11.805Z,13.95
2023-05-05T20:28:45.926Z,11.30
2023-05-05T20:31:18.553Z,12.10
2023-05-05T20:33:53.846Z,11.57
2023-05-05T20:36:27.743Z,11.82
2023-05-05T20:39:00.339Z,10.57
2023-05-05T20:41:32.985Z,10.68
2023-05-05T20:44:05.429Z,11.25
2023-05-05T20:46:37.903Z,12.40
2023-05-05T20:49:10.291Z,13.60
2023-05-05T20:51:42.558Z,13.98
2023-05-05T20:54:15.088Z,13.88
2023-05-05T20:56:47.811Z,12.18
2023-05-05T20:59:20.145Z,14.05
2023-05-05T21:01:52.411Z,15.55
2023-05-05T21:04:25.368Z,14.70
2023-05-05T21:07:01.673Z,14.57
2023-05-05T21:09:35.591Z,14.60
2023-05-05T21:12:08.066Z,16.65
2023-05-05T21:14:46.657Z,14.77
2023-05-05T21:17:19.994Z,15.05
2023-05-05T21:19:52.840Z,17.17
2023-05-05T21:22:25.227Z,14.10
2023-05-05T21:25:13.813Z,17.98
2023-05-05T21:27:47.874Z,16.05
2023-05-05T21:30:23.226Z,15.85
2023-05-05T21:32:55.760Z,16.30
2023-05-05T21:35:28.111Z,17.48
2023-05-05T21:38:00.224Z,18.13
2023-05-05T21:40:32.422Z,17.88
2023-05-05T21:43:04.805Z,18.25
2023-05-05T21:45:37.045Z,16.67
2023-05-05T21:48:09.387Z,18.10
2023-05-05T21:50:46.855Z,17.35
2023-05-05T21:53:19.232Z,17.70
2023-05-05T21:55:51.849Z,18.10
2023-05-05T21:58:25.266Z,18.33
2023-05-05T22:00:57.447Z,19.17
2023-05-05T22:03:29.663Z,18.73
2023-05-05T22:06:02.010Z,20.55
2023-05-05T22:08:34.222Z,19.48
2023-05-05T22:11:07.112Z,21.25
2023-05-05T22:13:39.642Z,22.63
2023-05-05T22:16:12.430Z,21.88
2023-05-05T22:18:47.768Z,21.70
2023-05-05T22:21:21.396Z,22.00
2023-05-05T22:23:53.675Z,24.52
2023-05-05T22:26:26.073Z,23.95
2023-05-05T22:28:58.858Z,23.50
2023-05-05T22:31:31.120Z,24.08
2023-05-05T22:34:04.182Z,25.00
2023-05-05T22:36:36.313Z,24.25
2023-05-05T22:39:08.754Z,24.75
2023-05-05T22:41:41.390Z,26.20
2023-05-05T22:44:13.688Z,25.30
2023-05-05T22:46:45.986Z,23.73
2023-05-05T22:49:18.218Z,26.55
2023-05-05T22:51:51.497Z,24.20
2023-05-05T22:54:23.852Z,24.33
2023-05-05T22:56:56.355Z,24.85
2023-05-05T22:59:29.403Z,23.73
2023-05-05T23:02:07.338Z,24.75
2023-05-05T23:04:39.738Z,25.42
2023-05-05T23:07:13.371Z,24.73
2023-05-05T23:09:47.415Z,25.15
2023-05-05T23:12:19.631Z,26.77
2023-05-05T23:14:52.799Z,28.70
2023-05-05T23:17:25.015Z,26.30
2023-05-05T23:19:57.458Z,26.20
2023-05-05T23:22:29.676Z,26.98
2023-05-05T23:25:03.617Z,25.42
2023-05-05T23:27:36.081Z,27.25
2023-05-05T23:30:12.322Z,25.73
2023-05-05T23:32:45.233Z,26.42
2023-05-05T23:35:20.562Z,24.77
2023-05-05T23:37:53.361Z,25.05
2023-05-05T23:40:28.879Z,25.90
2023-05-05T23:43:06.791Z,30.15
2023-05-05T23:45:39.417Z,29.27
2023-05-05T23:48:15.625Z,28.90
2023-05-05T23:50:49.208Z,30.15
2023-05-05T23:53:24.398Z,30.45
2023-05-05T23:55:57.232Z,30.02
2023-05-05T23:58:29.564Z,31.67
